Time;durP1;ratioP1;P1;durP2;ratioP2;P2;SDS_P1;SDS_P2;PMS_P1;PMS_P2;Temp;Humidity;BMP_temperature;BMP_pressure;BME280_temperature;BME280_humidity;BME280_pressure;Samples;Min_cycle;Max_cycle;Signal;HPM_P1;HPM_P2
2022/01/08 00:00:24;;;;;;;;;;;;;;;;;;6214904;23;20277;-75
2022/01/08 00:02:51;;;;;;;;;;;;;;;;;;6215195;23;19915;-75
2022/01/08 00:05:18;;;;;;;;;;;;;;;;;;6214846;23;19911;-75
2022/01/08 00:07:44;;;;;;;;;;;;;;;;;;6215124;23;19908;-75
2022/01/08 00:10:10;;;;;;;;;;;;;;;;;;6214665;23;19958;-75
2022/01/08 00:12:36;;;;;;;;;;;;;;;;;;6215430;23;19904;-75
2022/01/08 00:15:02;;;;;;;;;;;;;;;;;;6215015;23;19919;-75
2022/01/08 00:17:28;;;;;;;;;;;;;;;;;;6214884;23;19904;-75
2022/01/08 00:19:54;;;;;;;;;;;;;;;;;;6214795;23;19911;-75
2022/01/08 00:22:19;;;;;;;;;;;;;;;;;;6189071;23;20250;-75
2022/01/08 00:24:47;;;;;;;;;;;;;;;;;;6215134;23;19911;-75
2022/01/08 00:27:13;;;;;;;;;;;;;;;;;;6215242;23;19904;-75
2022/01/08 00:29:40;;;;;;;;;;;;;;;;;;6214258;23;19938;-75
2022/01/08 00:32:05;;;;;;;;;;;;;;;;;;6214798;23;20214;-75
2022/01/08 00:34:31;;;;;;;;;;;;;;;;;;6214417;23;19951;-75
2022/01/08 00:36:57;;;;;;;;;;;;;;;;;;6214849;23;19908;-74
2022/01/08 00:39:23;;;;;;;;;;;;;;;;;;6188801;23;20218;-75
2022/01/08 00:41:49;;;;;;;;;;;;;;;;;;6214974;23;20284;-75
2022/01/08 00:44:16;;;;;;;;;;;;;;;;;;6215303;23;19904;-75
2022/01/08 00:46:42;;;;;;;;;;;;;;;;;;6214987;23;19900;-75
2022/01/08 00:49:08;;;;;;;;;;;;;;;;;;6215123;23;20322;-75
2022/01/08 00:51:34;;;;;;;;;;;;;;;;;;6215226;23;19904;-75
2022/01/08 00:54:00;;;;;;;;;;;;;;;;;;6215152;23;19904;-75
2022/01/08 00:56:26;;;;;;;;;;;;;;;;;;6214969;23;20217;-75
2022/01/08 00:58:52;;;;;;;;;;;;;;;;;;6215108;23;19911;-75
2022/01/08 01:01:17;;;;;;;;;;;;;;;;;;6214898;23;19904;-75
2022/01/08 01:03:43;;;;;;;;;;;;;;;;;;6215050;23;20225;-75
2022/01/08 01:06:09;;;;;;;;;;;;;;;;;;6214866;23;19908;-74
2022/01/08 01:08:35;;;;;;;;;;;;;;;;;;6214913;23;19904;-75
2022/01/08 01:11:01;;;;;;;;;;;;;;;;;;6214037;23;19915;-74
2022/01/08 01:13:27;;;;;;;;;;;;;;;;;;6215249;23;19904;-75
2022/01/08 01:15:53;;;;;;;;;;;;;;;;;;6215159;23;19904;-75
2022/01/08 01:18:19;;;;;;;;;;;;;;;;;;6189116;23;20222;-75
2022/01/08 01:20:45;;;;;;;;;;;;;;;;;;6216850;23;20007;-75
2022/01/08 01:23:14;;;;;;;;;;;;;;;;;;6216740;23;19911;-75
2022/01/08 01:25:53;;;;;;;;;;;;;;;;;;6216658;23;20223;-75
2022/01/08 01:41:47;;;;;;;;;;;;;;;;;;6216115;23;20265;-75
2022/01/08 01:47:03;;;;;;;;;;;;;;;;;;6216670;23;19904;-75
2022/01/08 01:49:29;;;;;;;;;;;;;;;;;;6217025;23;19986;-75
2022/01/08 01:51:55;;;;;;;;;;;;;;;;;;6216393;23;19931;-75
2022/01/08 01:54:21;;;;;;;;;;;;;;;;;;6216286;23;19987;-75
2022/01/08 01:56:47;;;;;;;;;;;;;;;;;;6216995;23;20353;-75
2022/01/08 01:59:13;;;;;;;;;;;;;;;;;;6188839;23;19939;-75
2022/01/08 02:01:39;;;;;;;;;;;;;;;;;;6216672;23;20326;-75
2022/01/08 02:04:05;;;;;;;;;;;;;;;;;;6216139;23;19911;-75
2022/01/08 02:06:31;;;;;;;;;;;;;;;;;;6216647;23;19908;-75
2022/01/08 02:08:57;;;;;;;;;;;;;;;;;;6216278;23;19931;-75
2022/01/08 02:11:23;;;;;;;;;;;;;;;;;;6216491;23;19979;-75
2022/01/08 02:13:49;;;;;;;;;;;;;;;;;;6215864;23;19904;-75
2022/01/08 02:16:18;;;;;;;;;;;;;;;;;;6216230;23;19970;-75
2022/01/08 02:18:44;;;;;;;;;;;;;;;;;;6190186;23;19904;-75
2022/01/08 02:21:10;;;;;;;;;;;;;;;;;;6216386;23;19904;-75
2022/01/08 02:23:36;;;;;;;;;;;;;;;;;;6216265;23;19908;-75
2022/01/08 02:26:02;;;;;;;;;;;;;;;;;;6189654;23;19911;-75
2022/01/08 02:28:28;;;;;;;;;;;;;;;;;;6215563;23;19904;-75
2022/01/08 02:30:54;;;;;;;;;;;;;;;;;;6215662;23;19923;-75
2022/01/08 02:33:20;;;;;;;;;;;;;;;;;;6215926;23;19908;-75
2022/01/08 02:35:46;;;;;;;;;;;;;;;;;;6216735;23;20237;-75
2022/01/08 02:38:11;;;;;;;;;;;;;;;;;;6215504;23;19908;-75
2022/01/08 02:40:37;;;;;;;;;;;;;;;;;;6216324;23;19908;-75
2022/01/08 02:43:04;;;;;;;;;;;;;;;;;;6189246;23;20002;-75
2022/01/08 02:45:30;;;;;;;;;;;;;;;;;;6215944;23;19904;-75
2022/01/08 02:47:56;;;;;;;;;;;;;;;;;;6215836;23;19982;-75
2022/01/08 02:50:21;;;;;;;;;;;;;;;;;;6215731;23;20237;-75
2022/01/08 02:52:47;;;;;;;;;;;;;;;;;;6215560;23;19911;-75
2022/01/08 02:55:13;;;;;;;;;;;;;;;;;;6189379;23;19904;-75
2022/01/08 02:57:39;;;;;;;;;;;;;;;;;;6216082;23;19911;-75
2022/01/08 03:00:05;;;;;;;;;;;;;;;;;;6215643;23;19904;-75
2022/01/08 03:02:31;;;;;;;;;;;;;;;;;;6216056;23;19908;-75
2022/01/08 03:04:57;;;;;;;;;;;;;;;;;;6215490;23;20288;-75
2022/01/08 03:07:23;;;;;;;;;;;;;;;;;;6187844;23;20234;-75
2022/01/08 03:09:58;;;;;;;;;;;;;;;;;;6188618;23;19912;-75
2022/01/08 03:12:24;;;;;;;;;;;;;;;;;;6215635;23;19907;-75
2022/01/08 03:14:49;;;;;;;;;;;;;;;;;;6189154;23;20286;-75
2022/01/08 03:17:15;;;;;;;;;;;;;;;;;;6189367;23;19982;-75
2022/01/08 03:19:41;;;;;;;;;;;;;;;;;;6215673;23;19908;-75
2022/01/08 03:22:07;;;;;;;;;;;;;;;;;;6214902;23;19970;-75
2022/01/08 03:24:33;;;;;;;;;;;;;;;;;;6215903;23;19903;-75
2022/01/08 03:26:59;;;;;;;;;;;;;;;;;;6215604;23;20338;-75
2022/01/08 03:29:25;;;;;;;;;;;;;;;;;;6215090;23;19939;-75
2022/01/08 03:31:51;;;;;;;;;;;;;;;;;;6188430;23;19915;-75
2022/01/08 03:34:17;;;;;;;;;;;;;;;;;;6188673;23;19911;-75
2022/01/08 03:36:43;;;;;;;;;;;;;;;;;;6215169;23;19904;-75
2022/01/08 03:39:09;;;;;;;;;;;;;;;;;;6215457;23;19935;-75
2022/01/08 03:41:35;;;;;;;;;;;;;;;;;;6215211;23;19908;-75
2022/01/08 03:44:01;;;;;;;;;;;;;;;;;;6215689;23;19908;-75
2022/01/08 03:46:29;;;;;;;;;;;;;;;;;;6215689;23;19950;-75
2022/01/08 03:49:24;;;;;;;;;;;;;;;;;;6215330;23;19908;-75
2022/01/08 03:51:43;;;;;;;;;;;;;;;;;;6213650;23;19986;-75
2022/01/08 03:54:09;;;;;;;;;;;;;;;;;;6215378;23;19978;-75
2022/01/08 03:56:35;;;;;;;;;;;;;;;;;;6215768;23;20374;-75
2022/01/08 03:59:01;;;;;;;;;;;;;;;;;;6215408;23;19915;-75
2022/01/08 04:01:27;;;;;;;;;;;;;;;;;;6214848;23;19904;-75
2022/01/08 04:03:53;;;;;;;;;;;;;;;;;;6215767;23;20387;-75
2022/01/08 04:06:19;;;;;;;;;;;;;;;;;;6215103;23;19927;-75
2022/01/08 04:08:45;;;;;;;;;;;;;;;;;;6215388;23;19904;-75
2022/01/08 04:11:11;;;;;;;;;;;;;;;;;;6215719;23;19918;-75
2022/01/08 04:13:40;;;;;;;;;;;;;;;;;;6187787;23;19935;-75
2022/01/08 04:16:13;;;;;;;;;;;;;;;;;;6215275;23;19908;-73
2022/01/08 04:18:39;;;;;;;;;;;;;;;;;;6215467;23;19931;-75
2022/01/08 04:23:49;;;;;;;;;;;;;;;;;;6214980;23;19910;-75
2022/01/08 04:26:15;;;;;;;;;;;;;;;;;;6214768;23;19903;-74
2022/01/08 04:28:41;;;;;;;;;;;;;;;;;;6215199;23;19904;-75
2022/01/08 04:31:07;;;;;;;;;;;;;;;;;;6214823;23;20326;-75
2022/01/08 04:33:32;;;;;;;;;;;;;;;;;;6215046;23;19904;-75
2022/01/08 04:35:58;;;;;;;;;;;;;;;;;;6215220;23;20284;-73
2022/01/08 04:38:24;;;;;;;;;;;;;;;;;;6214181;23;19904;-75
2022/01/08 04:40:50;;;;;;;;;;;;;;;;;;6215377;23;19907;-75
2022/01/08 04:43:16;;;;;;;;;;;;;;;;;;6214898;23;19911;-73
2022/01/08 04:45:43;;;;;;;;;;;;;;;;;;6214332;23;19911;-75
2022/01/08 04:48:09;;;;;;;;;;;;;;;;;;6214919;23;19908;-75
2022/01/08 04:50:35;;;;;;;;;;;;;;;;;;6213740;23;20332;-75
2022/01/08 04:53:00;;;;;;;;;;;;;;;;;;6215893;23;19910;-75
2022/01/08 04:55:26;;;;;;;;;;;;;;;;;;6217585;23;19908;-75
2022/01/08 04:57:52;;;;;;;;;;;;;;;;;;6216963;23;19904;-75
2022/01/08 05:00:18;;;;;;;;;;;;;;;;;;6217424;23;20226;-75
2022/01/08 05:02:44;;;;;;;;;;;;;;;;;;6216695;23;19975;-75
2022/01/08 05:05:10;;;;;;;;;;;;;;;;;;6216414;23;20359;-75
2022/01/08 05:07:36;;;;;;;;;;;;;;;;;;6216848;23;19975;-75
2022/01/08 05:10:02;;;;;;;;;;;;;;;;;;6216816;23;19908;-74
2022/01/08 05:12:28;;;;;;;;;;;;;;;;;;6190452;23;19903;-75
2022/01/08 05:14:56;;;;;;;;;;;;;;;;;;6216815;23;19908;-75
2022/01/08 05:17:28;;;;;;;;;;;;;;;;;;6216317;23;20330;-75
2022/01/08 05:19:54;;;;;;;;;;;;;;;;;;6190106;23;19927;-75
2022/01/08 05:22:26;;;;;;;;;;;;;;;;;;6189914;23;19904;-75
2022/01/08 05:24:52;;;;;;;;;;;;;;;;;;6217076;23;19994;-75
2022/01/08 05:27:18;;;;;;;;;;;;;;;;;;6216827;23;19904;-75
2022/01/08 05:29:44;;;;;;;;;;;;;;;;;;6189598;23;19974;-75
2022/01/08 05:32:16;;;;;;;;;;;;;;;;;;6216867;23;20330;-75
2022/01/08 05:34:42;;;;;;;;;;;;;;;;;;6216500;23;19904;-75
2022/01/08 05:37:08;;;;;;;;;;;;;;;;;;6216333;23;19908;-75
2022/01/08 05:39:34;;;;;;;;;;;;;;;;;;6216548;23;19900;-75
2022/01/08 05:41:59;;;;;;;;;;;;;;;;;;6216596;23;19910;-75
2022/01/08 05:44:25;;;;;;;;;;;;;;;;;;6216208;23;19950;-75
2022/01/08 05:46:51;;;;;;;;;;;;;;;;;;6215643;23;19907;-75
2022/01/08 05:49:17;;;;;;;;;;;;;;;;;;6216531;23;20322;-75
2022/01/08 05:51:43;;;;;;;;;;;;;;;;;;6215981;23;19904;-75
2022/01/08 05:54:09;;;;;;;;;;;;;;;;;;6217269;23;19908;-75
2022/01/08 05:56:35;;;;;;;;;;;;;;;;;;6216341;23;19904;-75
2022/01/08 05:59:01;;;;;;;;;;;;;;;;;;6216618;23;19908;-75
2022/01/08 06:01:27;;;;;;;;;;;;;;;;;;6189790;23;20246;-75
2022/01/08 06:03:52;;;;;;;;;;;;;;;;;;6215897;23;20276;-75
2022/01/08 06:06:18;;;;;;;;;;;;;;;;;;6216780;23;19911;-75
2022/01/08 06:08:44;;;;;;;;;;;;;;;;;;6215953;23;19934;-75
2022/01/08 06:11:10;;;;;;;;;;;;;;;;;;6216350;23;19911;-75
2022/01/08 06:13:36;;;;;;;;;;;;;;;;;;6216231;23;19914;-75
2022/01/08 06:16:02;;;;;;;;;;;;;;;;;;6216112;23;20215;-75
2022/01/08 06:18:28;;;;;;;;;;;;;;;;;;6190225;23;19904;-75
2022/01/08 06:20:55;;;;;;;;;;;;;;;;;;6216106;23;19903;-75
2022/01/08 06:23:21;;;;;;;;;;;;;;;;;;6216238;23;20330;-75
2022/01/08 06:25:47;;;;;;;;;;;;;;;;;;6190035;23;19930;-75
2022/01/08 06:28:13;;;;;;;;;;;;;;;;;;6189063;23;19915;-75
2022/01/08 06:30:39;;;;;;;;;;;;;;;;;;6188000;23;19920;-75
2022/01/08 06:33:05;;;;;;;;;;;;;;;;;;6216278;23;20284;-75
2022/01/08 06:35:31;;;;;;;;;;;;;;;;;;6216150;23;20278;-75
2022/01/08 06:37:57;;;;;;;;;;;;;;;;;;6216233;23;19985;-75
2022/01/08 06:40:23;;;;;;;;;;;;;;;;;;6216418;23;19908;-75
2022/01/08 06:42:49;;;;;;;;;;;;;;;;;;6215510;23;19907;-75
2022/01/08 06:45:15;;;;;;;;;;;;;;;;;;6215537;23;19910;-75
2022/01/08 06:47:43;;;;;;;;;;;;;;;;;;6216134;23;19904;-75
2022/01/08 06:50:09;;;;;;;;;;;;;;;;;;6216277;23;20322;-75
2022/01/08 06:52:34;;;;;;;;;;;;;;;;;;6216151;23;20026;-75
2022/01/08 06:55:00;;;;;;;;;;;;;;;;;;6216120;23;19904;-75
2022/01/08 06:57:26;;;;;;;;;;;;;;;;;;6215842;23;19907;-75
2022/01/08 06:59:52;;;;;;;;;;;;;;;;;;6214911;23;19904;-75
2022/01/08 07:02:18;;;;;;;;;;;;;;;;;;6215681;23;19911;-75
2022/01/08 07:04:44;;;;;;;;;;;;;;;;;;6215849;23;19979;-75
2022/01/08 07:07:10;;;;;;;;;;;;;;;;;;6215815;23;19907;-75
2022/01/08 07:09:36;;;;;;;;;;;;;;;;;;6215744;23;20282;-75
2022/01/08 07:12:02;;;;;;;;;;;;;;;;;;6215584;23;20384;-75
2022/01/08 07:14:28;;;;;;;;;;;;;;;;;;6215584;23;19959;-75
2022/01/08 07:16:54;;;;;;;;;;;;;;;;;;6215550;23;19915;-75
2022/01/08 07:19:20;;;;;;;;;;;;;;;;;;6215889;23;19911;-75
2022/01/08 07:21:46;;;;;;;;;;;;;;;;;;6215594;23;19903;-75
2022/01/08 07:24:12;;;;;;;;;;;;;;;;;;6216006;23;19904;-75
2022/01/08 07:26:38;;;;;;;;;;;;;;;;;;6215875;23;19931;-75
2022/01/08 07:29:03;;;;;;;;;;;;;;;;;;6214574;23;20328;-75
2022/01/08 07:31:29;;;;;;;;;;;;;;;;;;6188512;23;19958;-75
2022/01/08 07:33:55;;;;;;;;;;;;;;;;;;6215417;23;19904;-75
2022/01/08 07:36:22;;;;;;;;;;;;;;;;;;6215727;23;20318;-75
2022/01/08 07:38:48;;;;;;;;;;;;;;;;;;6189449;23;20329;-74
2022/01/08 07:41:14;;;;;;;;;;;;;;;;;;6214566;23;19904;-74
2022/01/08 07:43:40;;;;;;;;;;;;;;;;;;6214960;23;19962;-74
2022/01/08 07:46:06;;;;;;;;;;;;;;;;;;6214880;23;19904;-75
2022/01/08 07:48:31;;;;;;;;;;;;;;;;;;6215133;23;19941;-75
2022/01/08 07:50:58;;;;;;;;;;;;;;;;;;6214861;23;19908;-74
2022/01/08 07:53:24;;;;;;;;;;;;;;;;;;6215098;23;19904;-74
2022/01/08 07:55:51;;;;;;;;;;;;;;;;;;6219701;23;19954;-76
2022/01/08 07:58:20;;;;;;;;;;;;;;;;;;6218095;23;19904;-75
2022/01/08 08:00:46;;;;;;;;;;;;;;;;;;6214590;23;20285;-74
2022/01/08 08:03:12;;;;;;;;;;;;;;;;;;6215701;23;19904;-75
2022/01/08 08:05:38;;;;;;;;;;;;;;;;;;6215301;23;19904;-74
2022/01/08 08:08:04;;;;;;;;;;;;;;;;;;6215232;23;20310;-74
2022/01/08 08:10:30;;;;;;;;;;;;;;;;;;6215084;23;20319;-74
2022/01/08 08:12:56;;;;;;;;;;;;;;;;;;6214488;23;19904;-75
2022/01/08 08:15:22;;;;;;;;;;;;;;;;;;6214971;23;20031;-74
2022/01/08 08:17:48;;;;;;;;;;;;;;;;;;6216010;23;19932;-76
2022/01/08 08:20:14;;;;;;;;;;;;;;;;;;6215141;23;19904;-75
2022/01/08 08:22:40;;;;;;;;;;;;;;;;;;6215550;23;20380;-74
2022/01/08 08:25:06;;;;;;;;;;;;;;;;;;6215098;23;19954;-76
2022/01/08 08:27:32;;;;;;;;;;;;;;;;;;6215074;23;19904;-76
2022/01/08 08:29:58;;;;;;;;;;;;;;;;;;6214558;23;20330;-76
2022/01/08 08:32:23;;;;;;;;;;;;;;;;;;6188213;23;19904;-76
2022/01/08 08:34:51;;;;;;;;;;;;;;;;;;6215519;23;20277;-77
2022/01/08 08:37:17;;;;;;;;;;;;;;;;;;6188215;23;19911;-76
2022/01/08 08:39:43;;;;;;;;;;;;;;;;;;6215242;23;19904;-76
2022/01/08 08:42:10;;;;;;;;;;;;;;;;;;6214876;23;20367;-77
2022/01/08 08:44:36;;;;;;;;;;;;;;;;;;6188749;23;20327;-75
2022/01/08 08:47:03;;;;;;;;;;;;;;;;;;6215076;23;19918;-76
2022/01/08 08:49:29;;;;;;;;;;;;;;;;;;6187223;23;19912;-76
2022/01/08 08:51:55;;;;;;;;;;;;;;;;;;6212393;23;19911;-76
2022/01/08 08:54:21;;;;;;;;;;;;;;;;;;6214425;23;19908;-76
2022/01/08 08:56:47;;;;;;;;;;;;;;;;;;6214329;23;19904;-76
2022/01/08 08:59:13;;;;;;;;;;;;;;;;;;6187938;23;19904;-76
2022/01/08 09:01:39;;;;;;;;;;;;;;;;;;6213248;23;19908;-76
2022/01/08 09:04:04;;;;;;;;;;;;;;;;;;6214348;23;19904;-76
2022/01/08 09:06:30;;;;;;;;;;;;;;;;;;6214000;23;19919;-75
2022/01/08 09:08:56;;;;;;;;;;;;;;;;;;6214667;23;20212;-76
2022/01/08 09:11:22;;;;;;;;;;;;;;;;;;6213880;23;19908;-76
2022/01/08 09:13:48;;;;;;;;;;;;;;;;;;6214986;23;19931;-76
2022/01/08 09:16:14;;;;;;;;;;;;;;;;;;6214830;23;20341;-75
2022/01/08 09:18:41;;;;;;;;;;;;;;;;;;6214542;23;19911;-76
2022/01/08 09:21:07;;;;;;;;;;;;;;;;;;6214570;23;19982;-76
2022/01/08 09:23:33;;;;;;;;;;;;;;;;;;6214592;23;19993;-75
2022/01/08 09:25:59;;;;;;;;;;;;;;;;;;6214369;23;19904;-75
2022/01/08 09:28:26;;;;;;;;;;;;;;;;;;6214193;23;19904;-76
2022/01/08 09:30:51;;;;;;;;;;;;;;;;;;6213864;23;19963;-76
2022/01/08 09:33:18;;;;;;;;;;;;;;;;;;6214121;23;19904;-76
2022/01/08 09:35:43;;;;;;;;;;;;;;;;;;6213639;23;19911;-75
2022/01/08 09:38:09;;;;;;;;;;;;;;;;;;6214256;23;19904;-76
2022/01/08 09:40:35;;;;;;;;;;;;;;;;;;6215985;23;20242;-76
2022/01/08 09:43:01;;;;;;;;;;;;;;;;;;6216232;23;19908;-75
2022/01/08 09:45:27;;;;;;;;;;;;;;;;;;6216557;23;19904;-75
2022/01/08 09:47:53;;;;;;;;;;;;;;;;;;6216176;23;20654;-76
2022/01/08 09:50:19;;;;;;;;;;;;;;;;;;6216021;23;19958;-76
2022/01/08 09:52:45;;;;;;;;;;;;;;;;;;6215898;23;19908;-75
2022/01/08 09:55:11;;;;;;;;;;;;;;;;;;6216051;23;19927;-76
2022/01/08 09:57:36;;;;;;;;;;;;;;;;;;6189919;23;19954;-76
2022/01/08 10:00:02;;;;;;;;;;;;;;;;;;6215573;23;19954;-76
2022/01/08 10:02:28;;;;;;;;;;;;;;;;;;6216081;23;19912;-75
2022/01/08 10:04:54;;;;;;;;;;;;;;;;;;6216601;23;19974;-76
2022/01/08 10:07:20;;;;;;;;;;;;;;;;;;6215921;23;19911;-76
2022/01/08 10:09:46;;;;;;;;;;;;;;;;;;6216119;23;19908;-75
2022/01/08 10:12:12;;;;;;;;;;;;;;;;;;6215026;23;20514;-75
2022/01/08 10:17:13;;;;;;;;;;;;;;;;;;6189168;23;19907;-75
2022/01/08 10:17:23;;;;;;;;;;;;;;;;;;6216012;23;20252;-78
2022/01/08 10:19:49;;;;;;;;;;;;;;;;;;6215384;23;19982;-75
2022/01/08 10:22:16;;;;;;;;;;;;;;;;;;6215056;23;19908;-75
2022/01/08 10:24:42;;;;;;;;;;;;;;;;;;6216144;23;19904;-75
2022/01/08 10:27:08;;;;;;;;;;;;;;;;;;6215535;23;19911;-75
2022/01/08 10:29:33;;;;;;;;;;;;;;;;;;6215676;23;20245;-76
2022/01/08 10:31:59;;;;;;;;;;;;;;;;;;6215688;23;20318;-75
2022/01/08 10:34:25;;;;;;;;;;;;;;;;;;6215900;23;20277;-76
2022/01/08 10:36:51;;;;;;;;;;;;;;;;;;6215368;23;19908;-77
2022/01/08 10:39:17;;;;;;;;;;;;;;;;;;6216454;23;19930;-77
2022/01/08 10:41:43;;;;;;;;;;;;;;;;;;6216139;23;19904;-77
2022/01/08 10:44:09;;;;;;;;;;;;;;;;;;6215638;23;19904;-76
2022/01/08 10:46:35;;;;;;;;;;;;;;;;;;6215994;23;19979;-76
2022/01/08 10:49:01;;;;;;;;;;;;;;;;;;6215674;23;19908;-77
2022/01/08 10:51:27;;;;;;;;;;;;;;;;;;6214797;23;19911;-76
2022/01/08 10:53:53;;;;;;;;;;;;;;;;;;6215777;23;20314;-77
2022/01/08 10:56:19;;;;;;;;;;;;;;;;;;6188995;23;19943;-76
2022/01/08 10:58:45;;;;;;;;;;;;;;;;;;6216093;23;19988;-77
2022/01/08 11:01:11;;;;;;;;;;;;;;;;;;6215552;23;19979;-76
2022/01/08 11:03:36;;;;;;;;;;;;;;;;;;6216391;23;20393;-76
2022/01/08 11:06:02;;;;;;;;;;;;;;;;;;6212713;23;19904;-77
2022/01/08 11:08:28;;;;;;;;;;;;;;;;;;6215464;23;19914;-77
2022/01/08 11:10:54;;;;;;;;;;;;;;;;;;6215116;23;19908;-79
2022/01/08 11:13:22;;;;;;;;;;;;;;;;;;6214908;23;19908;-76
2022/01/08 11:15:51;;;;;;;;;;;;;;;;;;6215550;23;20373;-76
2022/01/08 11:18:17;;;;;;;;;;;;;;;;;;6211121;23;19983;-76
2022/01/08 11:20:43;;;;;;;;;;;;;;;;;;6214517;23;20322;-76
2022/01/08 11:23:09;;;;;;;;;;;;;;;;;;6214792;23;19911;-79
2022/01/08 11:25:35;;;;;;;;;;;;;;;;;;6187732;23;19911;-76
2022/01/08 11:28:01;;;;;;;;;;;;;;;;;;6214946;23;19908;-76
2022/01/08 11:30:27;;;;;;;;;;;;;;;;;;6214562;23;20353;-76
2022/01/08 11:32:54;;;;;;;;;;;;;;;;;;6188373;23;20242;-76
2022/01/08 11:35:21;;;;;;;;;;;;;;;;;;6214270;23;20272;-77
2022/01/08 11:37:49;;;;;;;;;;;;;;;;;;6214775;23;20246;-76
2022/01/08 11:40:15;;;;;;;;;;;;;;;;;;6214770;23;19931;-77
2022/01/08 11:42:41;;;;;;;;;;;;;;;;;;6214950;23;20314;-77
2022/01/08 11:45:07;;;;;;;;;;;;;;;;;;6215241;23;19935;-77
2022/01/08 11:47:33;;;;;;;;;;;;;;;;;;6214800;23;19904;-76
2022/01/08 11:49:59;;;;;;;;;;;;;;;;;;6214843;23;19954;-77
2022/01/08 11:52:25;;;;;;;;;;;;;;;;;;6215313;23;19904;-78
2022/01/08 11:54:52;;;;;;;;;;;;;;;;;;6215270;23;20317;-77
2022/01/08 11:57:18;;;;;;;;;;;;;;;;;;6215493;23;20338;-76
2022/01/08 11:59:44;;;;;;;;;;;;;;;;;;6215045;23;19910;-77
2022/01/08 12:02:10;;;;;;;;;;;;;;;;;;6215445;23;19904;-77
2022/01/08 12:04:36;;;;;;;;;;;;;;;;;;6215016;23;19904;-78
2022/01/08 12:07:02;;;;;;;;;;;;;;;;;;6188355;23;19916;-77
2022/01/08 12:09:29;;;;;;;;;;;;;;;;;;6215212;23;19907;-77
2022/01/08 12:11:55;;;;;;;;;;;;;;;;;;6214261;23;19926;-76
2022/01/08 12:14:21;;;;;;;;;;;;;;;;;;6214851;23;20349;-78
2022/01/08 12:16:47;;;;;;;;;;;;;;;;;;6215080;23;20344;-77
2022/01/08 12:19:13;;;;;;;;;;;;;;;;;;6214522;23;19979;-76
2022/01/08 12:21:39;;;;;;;;;;;;;;;;;;6215047;23;20270;-76
2022/01/08 12:24:05;;;;;;;;;;;;;;;;;;6214633;23;19935;-77
2022/01/08 12:26:31;;;;;;;;;;;;;;;;;;6214984;23;19934;-77
2022/01/08 12:28:58;;;;;;;;;;;;;;;;;;6214705;23;20231;-78
2022/01/08 12:31:25;;;;;;;;;;;;;;;;;;6188455;23;19912;-80
2022/01/08 12:33:50;;;;;;;;;;;;;;;;;;6187500;23;19958;-77
2022/01/08 12:36:16;;;;;;;;;;;;;;;;;;6214846;23;19908;-77
2022/01/08 12:38:42;;;;;;;;;;;;;;;;;;6215430;23;20354;-76
2022/01/08 12:41:08;;;;;;;;;;;;;;;;;;6214855;23;19987;-78
2022/01/08 12:43:34;;;;;;;;;;;;;;;;;;6188631;23;19974;-77
2022/01/08 12:46:00;;;;;;;;;;;;;;;;;;6214286;23;19968;-77
2022/01/08 12:48:26;;;;;;;;;;;;;;;;;;6214603;23;19904;-77
2022/01/08 12:50:52;;;;;;;;;;;;;;;;;;6214384;23;20380;-77
2022/01/08 12:53:20;;;;;;;;;;;;;;;;;;6214668;23;19908;-77
2022/01/08 12:55:46;;;;;;;;;;;;;;;;;;6214873;23;19904;-77
2022/01/08 12:58:12;;;;;;;;;;;;;;;;;;6214759;23;19908;-77
2022/01/08 13:00:38;;;;;;;;;;;;;;;;;;6215625;23;19904;-77
2022/01/08 13:03:04;;;;;;;;;;;;;;;;;;6213924;23;19935;-77
2022/01/08 13:05:29;;;;;;;;;;;;;;;;;;6214301;23;19942;-77
2022/01/08 13:07:55;;;;;;;;;;;;;;;;;;6213924;23;20353;-77
2022/01/08 13:10:21;;;;;;;;;;;;;;;;;;6214529;23;20002;-76
2022/01/08 13:12:47;;;;;;;;;;;;;;;;;;6214115;23;19930;-76
2022/01/08 13:15:13;;;;;;;;;;;;;;;;;;6215786;23;20326;-76
2022/01/08 13:17:39;;;;;;;;;;;;;;;;;;6215682;23;19904;-77
2022/01/08 13:20:05;;;;;;;;;;;;;;;;;;6216448;23;19922;-77
2022/01/08 13:22:31;;;;;;;;;;;;;;;;;;6215911;23;19984;-76
2022/01/08 13:24:57;;;;;;;;;;;;;;;;;;6216218;23;20234;-76
2022/01/08 13:27:24;;;;;;;;;;;;;;;;;;6215126;23;19926;-76
2022/01/08 13:29:50;;;;;;;;;;;;;;;;;;6215543;23;20261;-76
2022/01/08 13:32:16;;;;;;;;;;;;;;;;;;6215504;23;19911;-77
2022/01/08 13:34:42;;;;;;;;;;;;;;;;;;6215347;23;19927;-76
2022/01/08 13:37:08;;;;;;;;;;;;;;;;;;6189610;23;19904;-76
2022/01/08 13:39:34;;;;;;;;;;;;;;;;;;6215579;23;19986;-76
2022/01/08 13:42:00;;;;;;;;;;;;;;;;;;6216149;23;19955;-76
2022/01/08 13:44:26;;;;;;;;;;;;;;;;;;6215905;23;19911;-76
2022/01/08 13:46:52;;;;;;;;;;;;;;;;;;6215523;23;19907;-77
2022/01/08 13:49:19;;;;;;;;;;;;;;;;;;6215582;23;20353;-76
2022/01/08 13:51:45;;;;;;;;;;;;;;;;;;6216362;23;19911;-76
2022/01/08 13:54:11;;;;;;;;;;;;;;;;;;6216506;23;20342;-76
2022/01/08 13:56:37;;;;;;;;;;;;;;;;;;6216210;23;19904;-76
2022/01/08 13:59:03;;;;;;;;;;;;;;;;;;6217037;23;20238;-76
2022/01/08 14:01:29;;;;;;;;;;;;;;;;;;6189035;23;19998;-76
2022/01/08 14:03:55;;;;;;;;;;;;;;;;;;6215977;23;19986;-76
2022/01/08 14:06:21;;;;;;;;;;;;;;;;;;6216405;23;19983;-77
2022/01/08 14:08:47;;;;;;;;;;;;;;;;;;6216206;23;20241;-76
2022/01/08 14:11:13;;;;;;;;;;;;;;;;;;6216189;23;19908;-76
2022/01/08 14:13:39;;;;;;;;;;;;;;;;;;6216479;23;19991;-76
2022/01/08 14:16:05;;;;;;;;;;;;;;;;;;6215784;23;19958;-76
2022/01/08 14:18:33;;;;;;;;;;;;;;;;;;6215228;23;20109;-76
2022/01/08 14:20:59;;;;;;;;;;;;;;;;;;6216359;23;20377;-76
2022/01/08 14:23:25;;;;;;;;;;;;;;;;;;6216028;23;19942;-76
2022/01/08 14:25:51;;;;;;;;;;;;;;;;;;6215884;23;19975;-76
2022/01/08 14:28:17;;;;;;;;;;;;;;;;;;6216546;23;19907;-76
2022/01/08 14:30:43;;;;;;;;;;;;;;;;;;6215606;23;19916;-77
2022/01/08 14:33:09;;;;;;;;;;;;;;;;;;6215954;23;20042;-77
2022/01/08 14:35:35;;;;;;;;;;;;;;;;;;6215684;23;19983;-75
2022/01/08 14:38:01;;;;;;;;;;;;;;;;;;6215533;23;19936;-76
2022/01/08 14:40:30;;;;;;;;;;;;;;;;;;6216585;23;20348;-76
2022/01/08 14:42:56;;;;;;;;;;;;;;;;;;6215791;23;19904;-77
2022/01/08 14:45:22;;;;;;;;;;;;;;;;;;6189423;23;19931;-76
2022/01/08 14:47:48;;;;;;;;;;;;;;;;;;6214465;23;19923;-76
2022/01/08 14:50:14;;;;;;;;;;;;;;;;;;6189628;23;19908;-77
2022/01/08 14:52:40;;;;;;;;;;;;;;;;;;6216116;23;19904;-77
2022/01/08 14:55:06;;;;;;;;;;;;;;;;;;6216460;23;19912;-77
2022/01/08 14:57:32;;;;;;;;;;;;;;;;;;6216071;23;19908;-76
2022/01/08 14:59:59;;;;;;;;;;;;;;;;;;6189227;23;19904;-77
2022/01/08 15:02:25;;;;;;;;;;;;;;;;;;6216045;23;19974;-77
2022/01/08 15:04:51;;;;;;;;;;;;;;;;;;6216358;23;19975;-76
2022/01/08 15:07:17;;;;;;;;;;;;;;;;;;6216398;23;20270;-76
2022/01/08 15:09:43;;;;;;;;;;;;;;;;;;6215845;23;19904;-76
2022/01/08 15:12:08;;;;;;;;;;;;;;;;;;6215479;23;19971;-76
2022/01/08 15:14:34;;;;;;;;;;;;;;;;;;6216499;23;20416;-76
2022/01/08 15:17:00;;;;;;;;;;;;;;;;;;6215447;23;19979;-76
2022/01/08 15:19:26;;;;;;;;;;;;;;;;;;6216280;23;19904;-77
2022/01/08 15:21:53;;;;;;;;;;;;;;;;;;6215956;23;19911;-76
2022/01/08 15:24:19;;;;;;;;;;;;;;;;;;6216097;23;19907;-76
2022/01/08 15:26:45;;;;;;;;;;;;;;;;;;6216135;23;19904;-76
2022/01/08 15:29:11;;;;;;;;;;;;;;;;;;6215352;23;20495;-77
2022/01/08 15:31:36;;;;;;;;;;;;;;;;;;6216043;23;19919;-76
2022/01/08 15:34:02;;;;;;;;;;;;;;;;;;6216011;23;20243;-76
2022/01/08 15:36:28;;;;;;;;;;;;;;;;;;6216311;23;19986;-77
2022/01/08 15:38:54;;;;;;;;;;;;;;;;;;6215581;23;20365;-77
2022/01/08 15:41:20;;;;;;;;;;;;;;;;;;6188047;23;19910;-77
2022/01/08 15:43:46;;;;;;;;;;;;;;;;;;6215537;23;19908;-76
2022/01/08 15:46:12;;;;;;;;;;;;;;;;;;6215549;23;19931;-76
2022/01/08 15:48:38;;;;;;;;;;;;;;;;;;6215352;23;19904;-76
2022/01/08 15:51:04;;;;;;;;;;;;;;;;;;6215769;23;19915;-77
2022/01/08 15:53:30;;;;;;;;;;;;;;;;;;6215837;23;20329;-77
2022/01/08 15:55:55;;;;;;;;;;;;;;;;;;6215023;23;19908;-79
2022/01/08 15:58:21;;;;;;;;;;;;;;;;;;6215287;23;19904;-76
2022/01/08 16:00:47;;;;;;;;;;;;;;;;;;6215530;23;19904;-76
2022/01/08 16:03:14;;;;;;;;;;;;;;;;;;6215598;23;19912;-76
2022/01/08 16:05:40;;;;;;;;;;;;;;;;;;6215831;23;19904;-76
2022/01/08 16:08:06;;;;;;;;;;;;;;;;;;6215288;23;20337;-76
2022/01/08 16:10:31;;;;;;;;;;;;;;;;;;6215119;23;19915;-76
2022/01/08 16:12:57;;;;;;;;;;;;;;;;;;6215799;23;19903;-76
2022/01/08 16:15:23;;;;;;;;;;;;;;;;;;6215502;23;19958;-77
2022/01/08 16:17:49;;;;;;;;;;;;;;;;;;6215548;23;19927;-75
2022/01/08 16:20:15;;;;;;;;;;;;;;;;;;6214381;23;19927;-77
2022/01/08 16:22:41;;;;;;;;;;;;;;;;;;6216125;23;20043;-77
2022/01/08 16:25:07;;;;;;;;;;;;;;;;;;6215195;23;19904;-78
2022/01/08 16:27:33;;;;;;;;;;;;;;;;;;6215669;23;19928;-77
2022/01/08 16:29:59;;;;;;;;;;;;;;;;;;6214850;23;20346;-76
2022/01/08 16:32:25;;;;;;;;;;;;;;;;;;6215381;23;19986;-77
2022/01/08 16:34:51;;;;;;;;;;;;;;;;;;6215261;23;19904;-76
2022/01/08 16:37:17;;;;;;;;;;;;;;;;;;6215170;23;19930;-77
2022/01/08 16:39:43;;;;;;;;;;;;;;;;;;6215114;23;19908;-77
2022/01/08 16:42:09;;;;;;;;;;;;;;;;;;6215947;23;19904;-76
2022/01/08 16:44:35;;;;;;;;;;;;;;;;;;6187834;23;19970;-76
2022/01/08 16:47:03;;;;;;;;;;;;;;;;;;6215205;23;19904;-75
2022/01/08 16:49:29;;;;;;;;;;;;;;;;;;6214782;23;19999;-76
2022/01/08 16:51:55;;;;;;;;;;;;;;;;;;6215091;23;19908;-76
2022/01/08 16:54:21;;;;;;;;;;;;;;;;;;6214680;23;19911;-76
2022/01/08 16:56:47;;;;;;;;;;;;;;;;;;6215571;23;19903;-76